sensor_id;sensor_type;location;lat;lon;timestamp;P1;durP1;ratioP1;P2;durP2;ratioP2
5539;SDS011;2792;52.452;9.752;2022-08-18T00:01:37;10.07;;;8.97;;
5539;SDS011;2792;52.452;9.752;2022-08-18T00:04:04;12.07;;;10.50;;
5539;SDS011;2792;52.452;9.752;2022-08-18T00:06:31;9.73;;;8.73;;
5539;SDS011;2792;52.452;9.752;2022-08-18T00:08:58;10.90;;;9.07;;
5539;SDS011;2792;52.452;9.752;2022-08-18T00:11:27;10.57;;;9.17;;
5539;SDS011;2792;52.452;9.752;2022-08-18T00:13:54;10.10;;;9.10;;
5539;SDS011;2792;52.452;9.752;2022-08-18T00:16:22;11.03;;;9.93;;
5539;SDS011;2792;52.452;9.752;2022-08-18T00:18:49;11.30;;;9.70;;
5539;SDS011;2792;52.452;9.752;2022-08-18T00:21:15;13.47;;;10.83;;
5539;SDS011;2792;52.452;9.752;2022-08-18T00:23:43;10.67;;;9.63;;
5539;SDS011;2792;52.452;9.752;2022-08-18T00:26:09;14.60;;;10.90;;
5539;SDS011;2792;52.452;9.752;2022-08-18T00:28:36;12.10;;;10.67;;
5539;SDS011;2792;52.452;9.752;2022-08-18T00:31:03;12.70;;;9.67;;
5539;SDS011;2792;52.452;9.752;2022-08-18T00:33:32;11.83;;;9.10;;
5539;SDS011;2792;52.452;9.752;2022-08-18T00:35:59;14.03;;;10.43;;
5539;SDS011;2792;52.452;9.752;2022-08-18T00:38:25;14.10;;;8.50;;
5539;SDS011;2792;52.452;9.752;2022-08-18T00:40:52;12.90;;;9.50;;
5539;SDS011;2792;52.452;9.752;2022-08-18T00:43:22;9.30;;;8.37;;
5539;SDS011;2792;52.452;9.752;2022-08-18T00:45:52;10.43;;;9.37;;
5539;SDS011;2792;52.452;9.752;2022-08-18T00:48:19;10.37;;;8.70;;
5539;SDS011;2792;52.452;9.752;2022-08-18T00:50:47;12.87;;;10.50;;
5539;SDS011;2792;52.452;9.752;2022-08-18T00:53:16;11.87;;;9.60;;
5539;SDS011;2792;52.452;9.752;2022-08-18T00:55:44;11.20;;;10.10;;
5539;SDS011;2792;52.452;9.752;2022-08-18T00:58:13;12.50;;;10.13;;
5539;SDS011;2792;52.452;9.752;2022-08-18T01:00:43;16.73;;;10.47;;
5539;SDS011;2792;52.452;9.752;2022-08-18T01:03:11;12.83;;;11.53;;
5539;SDS011;2792;52.452;9.752;2022-08-18T01:05:41;16.67;;;11.40;;
5539;SDS011;2792;52.452;9.752;2022-08-18T01:08:12;18.43;;;11.37;;
5539;SDS011;2792;52.452;9.752;2022-08-18T01:10:39;15.33;;;12.40;;
5539;SDS011;2792;52.452;9.752;2022-08-18T01:13:06;13.37;;;11.90;;
5539;SDS011;2792;52.452;9.752;2022-08-18T01:15:33;17.63;;;12.33;;
5539;SDS011;2792;52.452;9.752;2022-08-18T01:18:02;12.63;;;11.30;;
5539;SDS011;2792;52.452;9.752;2022-08-18T01:20:54;19.07;;;13.03;;
5539;SDS011;2792;52.452;9.752;2022-08-18T01:23:40;16.20;;;13.70;;
5539;SDS011;2792;52.452;9.752;2022-08-18T01:26:07;14.77;;;13.27;;
5539;SDS011;2792;52.452;9.752;2022-08-18T01:28:34;16.43;;;13.10;;
5539;SDS011;2792;52.452;9.752;2022-08-18T01:31:03;17.63;;;14.27;;
5539;SDS011;2792;52.452;9.752;2022-08-18T01:33:30;21.73;;;13.60;;
5539;SDS011;2792;52.452;9.752;2022-08-18T01:36:01;17.90;;;13.20;;
5539;SDS011;2792;52.452;9.752;2022-08-18T01:38:36;12.40;;;11.10;;
5539;SDS011;2792;52.452;9.752;2022-08-18T01:41:05;18.07;;;14.53;;
5539;SDS011;2792;52.452;9.752;2022-08-18T01:43:32;15.20;;;13.00;;
5539;SDS011;2792;52.452;9.752;2022-08-18T01:46:00;14.87;;;12.30;;
5539;SDS011;2792;52.452;9.752;2022-08-18T01:48:28;13.47;;;12.00;;
5539;SDS011;2792;52.452;9.752;2022-08-18T01:50:57;15.77;;;12.57;;
5539;SDS011;2792;52.452;9.752;2022-08-18T01:53:23;19.30;;;13.93;;
5539;SDS011;2792;52.452;9.752;2022-08-18T01:55:51;12.50;;;10.63;;
5539;SDS011;2792;52.452;9.752;2022-08-18T01:58:21;13.27;;;11.20;;
5539;SDS011;2792;52.452;9.752;2022-08-18T02:00:52;15.53;;;13.33;;
5539;SDS011;2792;52.452;9.752;2022-08-18T02:03:18;17.70;;;15.30;;
5539;SDS011;2792;52.452;9.752;2022-08-18T02:05:46;21.00;;;14.80;;
5539;SDS011;2792;52.452;9.752;2022-08-18T02:08:14;18.30;;;16.40;;
5539;SDS011;2792;52.452;9.752;2022-08-18T02:10:41;20.57;;;15.33;;
5539;SDS011;2792;52.452;9.752;2022-08-18T02:13:08;20.80;;;15.77;;
5539;SDS011;2792;52.452;9.752;2022-08-18T02:15:36;18.93;;;14.77;;
5539;SDS011;2792;52.452;9.752;2022-08-18T02:18:03;15.80;;;13.90;;
5539;SDS011;2792;52.452;9.752;2022-08-18T02:20:29;16.47;;;13.20;;
5539;SDS011;2792;52.452;9.752;2022-08-18T02:22:56;17.83;;;13.80;;
5539;SDS011;2792;52.452;9.752;2022-08-18T02:25:23;15.60;;;13.53;;
5539;SDS011;2792;52.452;9.752;2022-08-18T02:27:50;17.67;;;14.97;;
5539;SDS011;2792;52.452;9.752;2022-08-18T02:30:18;16.17;;;14.43;;
5539;SDS011;2792;52.452;9.752;2022-08-18T02:32:46;20.10;;;16.57;;
5539;SDS011;2792;52.452;9.752;2022-08-18T02:35:12;17.90;;;15.63;;
5539;SDS011;2792;52.452;9.752;2022-08-18T02:37:39;18.57;;;16.63;;
5539;SDS011;2792;52.452;9.752;2022-08-18T02:40:07;18.83;;;15.23;;
5539;SDS011;2792;52.452;9.752;2022-08-18T02:42:36;22.77;;;17.73;;
5539;SDS011;2792;52.452;9.752;2022-08-18T02:45:03;20.03;;;16.77;;
5539;SDS011;2792;52.452;9.752;2022-08-18T02:47:30;19.43;;;17.03;;
5539;SDS011;2792;52.452;9.752;2022-08-18T02:49:58;20.63;;;16.93;;
5539;SDS011;2792;52.452;9.752;2022-08-18T02:52:25;23.00;;;18.17;;
5539;SDS011;2792;52.452;9.752;2022-08-18T02:54:53;25.00;;;18.57;;
5539;SDS011;2792;52.452;9.752;2022-08-18T02:57:20;24.13;;;20.40;;
5539;SDS011;2792;52.452;9.752;2022-08-18T02:59:47;22.40;;;19.70;;
5539;SDS011;2792;52.452;9.752;2022-08-18T03:02:14;26.03;;;19.80;;
5539;SDS011;2792;52.452;9.752;2022-08-18T03:04:40;23.87;;;19.17;;
5539;SDS011;2792;52.452;9.752;2022-08-18T03:07:08;26.73;;;20.03;;
5539;SDS011;2792;52.452;9.752;2022-08-18T03:09:35;27.07;;;22.10;;
5539;SDS011;2792;52.452;9.752;2022-08-18T03:12:02;32.10;;;24.10;;
5539;SDS011;2792;52.452;9.752;2022-08-18T03:14:31;30.83;;;24.90;;
5539;SDS011;2792;52.452;9.752;2022-08-18T03:16:58;31.00;;;24.47;;
5539;SDS011;2792;52.452;9.752;2022-08-18T03:19:25;31.10;;;23.90;;
5539;SDS011;2792;52.452;9.752;2022-08-18T03:21:53;30.00;;;23.20;;
5539;SDS011;2792;52.452;9.752;2022-08-18T03:24:21;29.77;;;23.30;;
5539;SDS011;2792;52.452;9.752;2022-08-18T03:26:47;26.20;;;22.27;;
5539;SDS011;2792;52.452;9.752;2022-08-18T03:29:14;31.17;;;23.63;;
5539;SDS011;2792;52.452;9.752;2022-08-18T03:31:41;29.20;;;23.30;;
5539;SDS011;2792;52.452;9.752;2022-08-18T03:34:09;30.70;;;23.97;;
5539;SDS011;2792;52.452;9.752;2022-08-18T03:36:36;31.40;;;24.60;;
5539;SDS011;2792;52.452;9.752;2022-08-18T03:39:04;29.50;;;23.80;;
5539;SDS011;2792;52.452;9.752;2022-08-18T03:41:35;29.63;;;23.53;;
5539;SDS011;2792;52.452;9.752;2022-08-18T03:44:03;31.57;;;25.47;;
5539;SDS011;2792;52.452;9.752;2022-08-18T03:46:30;28.13;;;23.23;;
5539;SDS011;2792;52.452;9.752;2022-08-18T03:48:57;29.50;;;25.67;;
5539;SDS011;2792;52.452;9.752;2022-08-18T03:51:27;31.77;;;23.50;;
5539;SDS011;2792;52.452;9.752;2022-08-18T03:53:56;29.07;;;22.27;;
5539;SDS011;2792;52.452;9.752;2022-08-18T03:56:25;32.23;;;23.23;;
5539;SDS011;2792;52.452;9.752;2022-08-18T03:58:55;30.23;;;23.27;;
5539;SDS011;2792;52.452;9.752;2022-08-18T04:01:23;29.50;;;22.63;;
5539;SDS011;2792;52.452;9.752;2022-08-18T04:03:54;29.17;;;23.87;;
5539;SDS011;2792;52.452;9.752;2022-08-18T04:06:23;25.10;;;20.50;;
5539;SDS011;2792;52.452;9.752;2022-08-18T04:08:51;27.50;;;23.73;;
5539;SDS011;2792;52.452;9.752;2022-08-18T04:11:18;31.77;;;24.20;;
5539;SDS011;2792;52.452;9.752;2022-08-18T04:13:44;28.30;;;22.30;;
5539;SDS011;2792;52.452;9.752;2022-08-18T04:16:13;24.67;;;21.13;;
5539;SDS011;2792;52.452;9.752;2022-08-18T04:18:40;29.77;;;20.60;;
5539;SDS011;2792;52.452;9.752;2022-08-18T04:21:07;27.00;;;20.30;;
5539;SDS011;2792;52.452;9.752;2022-08-18T04:23:35;31.70;;;25.10;;
5539;SDS011;2792;52.452;9.752;2022-08-18T04:26:03;36.20;;;25.40;;
5539;SDS011;2792;52.452;9.752;2022-08-18T04:28:31;35.73;;;26.00;;
5539;SDS011;2792;52.452;9.752;2022-08-18T04:30:58;31.40;;;26.80;;
5539;SDS011;2792;52.452;9.752;2022-08-18T04:33:26;41.17;;;27.77;;
5539;SDS011;2792;52.452;9.752;2022-08-18T04:35:54;32.60;;;26.00;;
5539;SDS011;2792;52.452;9.752;2022-08-18T04:38:21;34.87;;;27.43;;
5539;SDS011;2792;52.452;9.752;2022-08-18T04:40:48;30.90;;;25.03;;
5539;SDS011;2792;52.452;9.752;2022-08-18T04:43:15;33.60;;;25.70;;
5539;SDS011;2792;52.452;9.752;2022-08-18T04:45:43;35.47;;;26.00;;
5539;SDS011;2792;52.452;9.752;2022-08-18T04:48:11;30.53;;;23.47;;
5539;SDS011;2792;52.452;9.752;2022-08-18T04:50:41;29.77;;;23.57;;
5539;SDS011;2792;52.452;9.752;2022-08-18T04:53:08;28.13;;;22.30;;
5539;SDS011;2792;52.452;9.752;2022-08-18T04:55:53;31.10;;;24.30;;
5539;SDS011;2792;52.452;9.752;2022-08-18T04:58:21;31.70;;;21.40;;
5539;SDS011;2792;52.452;9.752;2022-08-18T05:00:55;30.70;;;23.93;;
5539;SDS011;2792;52.452;9.752;2022-08-18T05:03:22;29.07;;;23.03;;
5539;SDS011;2792;52.452;9.752;2022-08-18T05:05:52;30.70;;;24.20;;
5539;SDS011;2792;52.452;9.752;2022-08-18T05:08:18;28.10;;;22.07;;
5539;SDS011;2792;52.452;9.752;2022-08-18T05:10:46;29.27;;;24.10;;
5539;SDS011;2792;52.452;9.752;2022-08-18T05:13:13;26.97;;;22.53;;
5539;SDS011;2792;52.452;9.752;2022-08-18T05:15:40;30.70;;;22.63;;
5539;SDS011;2792;52.452;9.752;2022-08-18T05:18:07;26.53;;;21.80;;
5539;SDS011;2792;52.452;9.752;2022-08-18T05:20:35;23.77;;;20.30;;
5539;SDS011;2792;52.452;9.752;2022-08-18T05:23:06;22.83;;;19.23;;
5539;SDS011;2792;52.452;9.752;2022-08-18T05:25:32;26.47;;;20.90;;
5539;SDS011;2792;52.452;9.752;2022-08-18T05:28:00;29.03;;;21.03;;
5539;SDS011;2792;52.452;9.752;2022-08-18T05:30:27;29.90;;;23.33;;
5539;SDS011;2792;52.452;9.752;2022-08-18T05:32:53;31.87;;;24.20;;
5539;SDS011;2792;52.452;9.752;2022-08-18T05:35:22;32.60;;;25.43;;
5539;SDS011;2792;52.452;9.752;2022-08-18T05:37:54;27.30;;;22.70;;
5539;SDS011;2792;52.452;9.752;2022-08-18T05:40:27;34.23;;;25.03;;
5539;SDS011;2792;52.452;9.752;2022-08-18T05:42:55;35.97;;;29.07;;
5539;SDS011;2792;52.452;9.752;2022-08-18T05:45:22;35.27;;;27.17;;
5539;SDS011;2792;52.452;9.752;2022-08-18T05:47:49;35.17;;;27.13;;
5539;SDS011;2792;52.452;9.752;2022-08-18T05:50:16;36.93;;;28.17;;
5539;SDS011;2792;52.452;9.752;2022-08-18T05:52:47;38.87;;;29.03;;
5539;SDS011;2792;52.452;9.752;2022-08-18T05:55:19;34.47;;;27.23;;
5539;SDS011;2792;52.452;9.752;2022-08-18T05:58:09;36.50;;;27.87;;
5539;SDS011;2792;52.452;9.752;2022-08-18T06:00:38;36.43;;;27.00;;
5539;SDS011;2792;52.452;9.752;2022-08-18T06:03:18;30.50;;;25.63;;
5539;SDS011;2792;52.452;9.752;2022-08-18T06:05:48;33.70;;;26.77;;
5539;SDS011;2792;52.452;9.752;2022-08-18T06:08:18;31.60;;;24.30;;
5539;SDS011;2792;52.452;9.752;2022-08-18T06:10:48;32.50;;;25.47;;
5539;SDS011;2792;52.452;9.752;2022-08-18T06:13:17;37.17;;;28.30;;
5539;SDS011;2792;52.452;9.752;2022-08-18T06:15:51;35.83;;;28.00;;
5539;SDS011;2792;52.452;9.752;2022-08-18T06:18:32;37.60;;;27.97;;
5539;SDS011;2792;52.452;9.752;2022-08-18T06:21:09;31.90;;;25.50;;
5539;SDS011;2792;52.452;9.752;2022-08-18T06:23:45;31.30;;;25.20;;
5539;SDS011;2792;52.452;9.752;2022-08-18T06:26:16;33.83;;;26.90;;
5539;SDS011;2792;52.452;9.752;2022-08-18T06:28:52;37.60;;;28.20;;
5539;SDS011;2792;52.452;9.752;2022-08-18T06:31:29;36.40;;;28.13;;
5539;SDS011;2792;52.452;9.752;2022-08-18T06:34:02;39.63;;;28.47;;
5539;SDS011;2792;52.452;9.752;2022-08-18T06:36:38;39.07;;;29.30;;
5539;SDS011;2792;52.452;9.752;2022-08-18T06:39:12;40.60;;;31.90;;
5539;SDS011;2792;52.452;9.752;2022-08-18T06:41:43;44.73;;;31.73;;
5539;SDS011;2792;52.452;9.752;2022-08-18T06:44:15;46.93;;;33.10;;
5539;SDS011;2792;52.452;9.752;2022-08-18T06:46:45;43.23;;;31.80;;
5539;SDS011;2792;52.452;9.752;2022-08-18T06:49:16;43.13;;;30.67;;
5539;SDS011;2792;52.452;9.752;2022-08-18T06:51:47;49.10;;;35.13;;
5539;SDS011;2792;52.452;9.752;2022-08-18T06:54:24;43.43;;;31.53;;
5539;SDS011;2792;52.452;9.752;2022-08-18T06:56:54;47.70;;;33.50;;
5539;SDS011;2792;52.452;9.752;2022-08-18T06:59:24;49.90;;;35.83;;
5539;SDS011;2792;52.452;9.752;2022-08-18T07:01:53;46.07;;;33.77;;
5539;SDS011;2792;52.452;9.752;2022-08-18T07:07:17;49.63;;;33.93;;
5539;SDS011;2792;52.452;9.752;2022-08-18T07:09:46;47.50;;;35.90;;
5539;SDS011;2792;52.452;9.752;2022-08-18T07:12:18;48.50;;;32.17;;
5539;SDS011;2792;52.452;9.752;2022-08-18T07:14:49;51.43;;;33.23;;
5539;SDS011;2792;52.452;9.752;2022-08-18T07:17:19;43.43;;;32.17;;
5539;SDS011;2792;52.452;9.752;2022-08-18T07:19:55;44.77;;;32.70;;
5539;SDS011;2792;52.452;9.752;2022-08-18T07:22:23;45.90;;;31.17;;
5539;SDS011;2792;52.452;9.752;2022-08-18T07:24:50;39.10;;;28.63;;
5539;SDS011;2792;52.452;9.752;2022-08-18T07:27:19;47.57;;;31.03;;
5539;SDS011;2792;52.452;9.752;2022-08-18T07:30:00;40.40;;;30.90;;
5539;SDS011;2792;52.452;9.752;2022-08-18T07:32:31;42.17;;;31.27;;
5539;SDS011;2792;52.452;9.752;2022-08-18T07:35:00;43.43;;;30.53;;
5539;SDS011;2792;52.452;9.752;2022-08-18T07:37:29;45.83;;;32.23;;
5539;SDS011;2792;52.452;9.752;2022-08-18T07:39:58;46.10;;;32.40;;
5539;SDS011;2792;52.452;9.752;2022-08-18T07:42:32;43.40;;;30.37;;
5539;SDS011;2792;52.452;9.752;2022-08-18T07:45:08;43.30;;;30.90;;
5539;SDS011;2792;52.452;9.752;2022-08-18T07:47:40;43.87;;;31.17;;
5539;SDS011;2792;52.452;9.752;2022-08-18T07:50:19;45.07;;;31.67;;
5539;SDS011;2792;52.452;9.752;2022-08-18T07:52:47;49.00;;;31.50;;
5539;SDS011;2792;52.452;9.752;2022-08-18T07:55:20;47.60;;;32.90;;
5539;SDS011;2792;52.452;9.752;2022-08-18T07:57:51;45.60;;;32.00;;
5539;SDS011;2792;52.452;9.752;2022-08-18T08:00:23;46.20;;;30.60;;
5539;SDS011;2792;52.452;9.752;2022-08-18T08:02:57;45.07;;;31.50;;
5539;SDS011;2792;52.452;9.752;2022-08-18T08:05:41;43.47;;;30.90;;
5539;SDS011;2792;52.452;9.752;2022-08-18T08:08:13;45.00;;;30.20;;
5539;SDS011;2792;52.452;9.752;2022-08-18T08:10:48;50.07;;;33.43;;
5539;SDS011;2792;52.452;9.752;2022-08-18T08:13:18;48.73;;;33.20;;
5539;SDS011;2792;52.452;9.752;2022-08-18T08:15:52;44.50;;;30.70;;
5539;SDS011;2792;52.452;9.752;2022-08-18T08:18:24;45.73;;;31.40;;
5539;SDS011;2792;52.452;9.752;2022-08-18T08:21:00;49.07;;;31.40;;
5539;SDS011;2792;52.452;9.752;2022-08-18T08:23:29;41.43;;;28.97;;
5539;SDS011;2792;52.452;9.752;2022-08-18T08:26:05;42.53;;;29.23;;
5539;SDS011;2792;52.452;9.752;2022-08-18T08:28:50;36.93;;;26.60;;
5539;SDS011;2792;52.452;9.752;2022-08-18T08:31:23;37.80;;;27.17;;
5539;SDS011;2792;52.452;9.752;2022-08-18T08:33:54;38.33;;;28.87;;
5539;SDS011;2792;52.452;9.752;2022-08-18T08:36:26;34.80;;;25.60;;
5539;SDS011;2792;52.452;9.752;2022-08-18T08:38:56;37.83;;;26.80;;
5539;SDS011;2792;52.452;9.752;2022-08-18T08:41:27;34.93;;;25.40;;
5539;SDS011;2792;52.452;9.752;2022-08-18T08:44:09;40.50;;;25.90;;
5539;SDS011;2792;52.452;9.752;2022-08-18T08:46:43;35.77;;;26.83;;
5539;SDS011;2792;52.452;9.752;2022-08-18T08:49:17;36.17;;;25.93;;
5539;SDS011;2792;52.452;9.752;2022-08-18T08:51:49;36.07;;;27.03;;
5539;SDS011;2792;52.452;9.752;2022-08-18T08:54:21;39.10;;;27.87;;
5539;SDS011;2792;52.452;9.752;2022-08-18T08:56:53;37.67;;;27.20;;
5539;SDS011;2792;52.452;9.752;2022-08-18T08:59:21;40.23;;;29.53;;
5539;SDS011;2792;52.452;9.752;2022-08-18T09:01:53;36.23;;;27.17;;
5539;SDS011;2792;52.452;9.752;2022-08-18T09:04:28;34.30;;;25.50;;
5539;SDS011;2792;52.452;9.752;2022-08-18T09:07:02;34.50;;;26.40;;
5539;SDS011;2792;52.452;9.752;2022-08-18T09:09:49;32.60;;;24.10;;
5539;SDS011;2792;52.452;9.752;2022-08-18T09:12:36;30.80;;;23.70;;
5539;SDS011;2792;52.452;9.752;2022-08-18T09:15:13;31.87;;;23.53;;
5539;SDS011;2792;52.452;9.752;2022-08-18T09:21:12;32.10;;;24.50;;
5539;SDS011;2792;52.452;9.752;2022-08-18T09:23:45;29.70;;;23.03;;
5539;SDS011;2792;52.452;9.752;2022-08-18T09:26:25;31.60;;;24.23;;
5539;SDS011;2792;52.452;9.752;2022-08-18T09:29:12;31.20;;;24.03;;
5539;SDS011;2792;52.452;9.752;2022-08-18T09:31:41;28.43;;;21.60;;
5539;SDS011;2792;52.452;9.752;2022-08-18T09:34:16;29.53;;;22.60;;
5539;SDS011;2792;52.452;9.752;2022-08-18T09:36:55;27.47;;;21.57;;
5539;SDS011;2792;52.452;9.752;2022-08-18T09:39:30;23.77;;;19.33;;
5539;SDS011;2792;52.452;9.752;2022-08-18T09:42:28;22.90;;;18.63;;
5539;SDS011;2792;52.452;9.752;2022-08-18T09:44:59;23.50;;;19.43;;
5539;SDS011;2792;52.452;9.752;2022-08-18T09:53:32;25.80;;;20.30;;
5539;SDS011;2792;52.452;9.752;2022-08-18T09:56:02;25.90;;;20.33;;
5539;SDS011;2792;52.452;9.752;2022-08-18T09:58:50;23.00;;;18.50;;
5539;SDS011;2792;52.452;9.752;2022-08-18T10:01:33;27.00;;;21.20;;
5539;SDS011;2792;52.452;9.752;2022-08-18T10:07:19;25.10;;;19.77;;
5539;SDS011;2792;52.452;9.752;2022-08-18T10:10:06;21.60;;;18.20;;
5539;SDS011;2792;52.452;9.752;2022-08-18T10:12:43;23.27;;;18.90;;
5539;SDS011;2792;52.452;9.752;2022-08-18T10:15:19;21.57;;;18.07;;
5539;SDS011;2792;52.452;9.752;2022-08-18T10:18:04;22.97;;;18.27;;
5539;SDS011;2792;52.452;9.752;2022-08-18T10:20:59;19.93;;;16.50;;
5539;SDS011;2792;52.452;9.752;2022-08-18T10:23:48;22.47;;;17.60;;
5539;SDS011;2792;52.452;9.752;2022-08-18T10:38:21;19.97;;;15.73;;
5539;SDS011;2792;52.452;9.752;2022-08-18T10:41:04;18.93;;;15.90;;
5539;SDS011;2792;52.452;9.752;2022-08-18T10:43:34;19.50;;;16.63;;
5539;SDS011;2792;52.452;9.752;2022-08-18T10:46:02;19.00;;;16.27;;
5539;SDS011;2792;52.452;9.752;2022-08-18T10:48:30;17.17;;;14.23;;
5539;SDS011;2792;52.452;9.752;2022-08-18T10:51:12;17.70;;;13.47;;
5539;SDS011;2792;52.452;9.752;2022-08-18T10:53:43;17.87;;;13.73;;
5539;SDS011;2792;52.452;9.752;2022-08-18T10:56:17;13.73;;;11.43;;
5539;SDS011;2792;52.452;9.752;2022-08-18T10:58:54;13.70;;;11.77;;
5539;SDS011;2792;52.452;9.752;2022-08-18T11:01:33;18.40;;;15.00;;
5539;SDS011;2792;52.452;9.752;2022-08-18T11:04:21;16.87;;;13.70;;
5539;SDS011;2792;52.452;9.752;2022-08-18T11:06:53;17.57;;;14.47;;
5539;SDS011;2792;52.452;9.752;2022-08-18T11:09:24;19.33;;;12.50;;
5539;SDS011;2792;52.452;9.752;2022-08-18T11:11:56;12.40;;;10.57;;
5539;SDS011;2792;52.452;9.752;2022-08-18T11:14:36;12.20;;;10.90;;
5539;SDS011;2792;52.452;9.752;2022-08-18T11:17:36;11.57;;;10.37;;
5539;SDS011;2792;52.452;9.752;2022-08-18T11:20:07;12.97;;;10.83;;
5539;SDS011;2792;52.452;9.752;2022-08-18T11:22:35;10.87;;;9.77;;
5539;SDS011;2792;52.452;9.752;2022-08-18T11:25:03;10.03;;;9.03;;
5539;SDS011;2792;52.452;9.752;2022-08-18T11:27:45;11.70;;;10.50;;
5539;SDS011;2792;52.452;9.752;2022-08-18T11:30:12;11.53;;;10.27;;
5539;SDS011;2792;52.452;9.752;2022-08-18T11:32:39;12.17;;;9.10;;
5539;SDS011;2792;52.452;9.752;2022-08-18T11:35:10;14.33;;;10.73;;
5539;SDS011;2792;52.452;9.752;2022-08-18T11:37:42;11.03;;;9.07;;
5539;SDS011;2792;52.452;9.752;2022-08-18T11:40:24;10.23;;;8.90;;
5539;SDS011;2792;52.452;9.752;2022-08-18T11:43:05;10.37;;;8.30;;
5539;SDS011;2792;52.452;9.752;2022-08-18T11:45:47;10.87;;;8.27;;
5539;SDS011;2792;52.452;9.752;2022-08-18T11:48:18;11.83;;;9.50;;
5539;SDS011;2792;52.452;9.752;2022-08-18T11:50:47;12.77;;;9.70;;
5539;SDS011;2792;52.452;9.752;2022-08-18T11:53:21;13.77;;;8.87;;
5539;SDS011;2792;52.452;9.752;2022-08-18T11:58:41;10.07;;;8.10;;
5539;SDS011;2792;52.452;9.752;2022-08-18T12:01:08;9.67;;;8.13;;
5539;SDS011;2792;52.452;9.752;2022-08-18T12:03:37;9.17;;;7.97;;
5539;SDS011;2792;52.452;9.752;2022-08-18T12:06:10;8.50;;;7.67;;
5539;SDS011;2792;52.452;9.752;2022-08-18T12:08:47;11.10;;;7.40;;
5539;SDS011;2792;52.452;9.752;2022-08-18T12:11:17;12.37;;;9.53;;
5539;SDS011;2792;52.452;9.752;2022-08-18T12:13:47;9.10;;;8.20;;
5539;SDS011;2792;52.452;9.752;2022-08-18T12:16:29;9.27;;;8.33;;
5539;SDS011;2792;52.452;9.752;2022-08-18T12:18:58;8.70;;;7.90;;
5539;SDS011;2792;52.452;9.752;2022-08-18T12:21:26;8.00;;;7.30;;
5539;SDS011;2792;52.452;9.752;2022-08-18T12:23:53;8.50;;;7.70;;
5539;SDS011;2792;52.452;9.752;2022-08-18T12:26:20;7.83;;;7.13;;
5539;SDS011;2792;52.452;9.752;2022-08-18T12:28:48;10.40;;;8.63;;
5539;SDS011;2792;52.452;9.752;2022-08-18T12:31:14;8.57;;;7.77;;
5539;SDS011;2792;52.452;9.752;2022-08-18T12:33:41;11.50;;;8.73;;
5539;SDS011;2792;52.452;9.752;2022-08-18T12:36:07;8.50;;;7.43;;
5539;SDS011;2792;52.452;9.752;2022-08-18T12:38:34;8.97;;;7.17;;
5539;SDS011;2792;52.452;9.752;2022-08-18T12:41:01;7.70;;;6.70;;
5539;SDS011;2792;52.452;9.752;2022-08-18T12:43:29;9.13;;;7.40;;
5539;SDS011;2792;52.452;9.752;2022-08-18T12:45:58;9.90;;;8.17;;
5539;SDS011;2792;52.452;9.752;2022-08-18T12:48:25;26.10;;;7.77;;
5539;SDS011;2792;52.452;9.752;2022-08-18T12:50:53;8.53;;;7.73;;
5539;SDS011;2792;52.452;9.752;2022-08-18T12:53:19;9.40;;;7.30;;
5539;SDS011;2792;52.452;9.752;2022-08-18T12:55:46;8.00;;;7.20;;
5539;SDS011;2792;52.452;9.752;2022-08-18T12:58:13;8.43;;;7.57;;
5539;SDS011;2792;52.452;9.752;2022-08-18T13:00:40;9.63;;;7.90;;
5539;SDS011;2792;52.452;9.752;2022-08-18T13:03:08;8.30;;;6.60;;
5539;SDS011;2792;52.452;9.752;2022-08-18T13:05:35;8.67;;;7.40;;
5539;SDS011;2792;52.452;9.752;2022-08-18T13:08:02;7.57;;;6.77;;
5539;SDS011;2792;52.452;9.752;2022-08-18T13:10:31;9.30;;;6.77;;
5539;SDS011;2792;52.452;9.752;2022-08-18T13:12:58;8.00;;;7.20;;
5539;SDS011;2792;52.452;9.752;2022-08-18T13:15:24;7.60;;;6.80;;
5539;SDS011;2792;52.452;9.752;2022-08-18T13:17:51;10.27;;;7.23;;
5539;SDS011;2792;52.452;9.752;2022-08-18T13:20:20;7.70;;;6.40;;
5539;SDS011;2792;52.452;9.752;2022-08-18T13:22:46;8.83;;;7.93;;
5539;SDS011;2792;52.452;9.752;2022-08-18T13:25:14;6.90;;;6.20;;
5539;SDS011;2792;52.452;9.752;2022-08-18T13:27:42;8.10;;;6.87;;
5539;SDS011;2792;52.452;9.752;2022-08-18T13:30:10;7.23;;;6.30;;
5539;SDS011;2792;52.452;9.752;2022-08-18T13:32:38;8.30;;;6.53;;
5539;SDS011;2792;52.452;9.752;2022-08-18T13:35:06;6.70;;;5.97;;
5539;SDS011;2792;52.452;9.752;2022-08-18T13:37:35;7.83;;;7.00;;
5539;SDS011;2792;52.452;9.752;2022-08-18T13:40:02;8.27;;;6.10;;
5539;SDS011;2792;52.452;9.752;2022-08-18T13:42:29;6.80;;;6.13;;
5539;SDS011;2792;52.452;9.752;2022-08-18T13:44:57;8.33;;;7.20;;
5539;SDS011;2792;52.452;9.752;2022-08-18T13:47:25;7.37;;;6.57;;
5539;SDS011;2792;52.452;9.752;2022-08-18T13:49:53;9.77;;;6.90;;
5539;SDS011;2792;52.452;9.752;2022-08-18T13:52:20;7.23;;;6.50;;
5539;SDS011;2792;52.452;9.752;2022-08-18T13:54:48;6.93;;;6.23;;
5539;SDS011;2792;52.452;9.752;2022-08-18T13:57:14;7.17;;;6.50;;
5539;SDS011;2792;52.452;9.752;2022-08-18T13:59:41;7.10;;;6.40;;
5539;SDS011;2792;52.452;9.752;2022-08-18T14:02:08;8.47;;;6.80;;
5539;SDS011;2792;52.452;9.752;2022-08-18T14:04:35;9.53;;;6.37;;
5539;SDS011;2792;52.452;9.752;2022-08-18T14:07:03;8.33;;;6.80;;
5539;SDS011;2792;52.452;9.752;2022-08-18T14:09:31;8.17;;;7.30;;
5539;SDS011;2792;52.452;9.752;2022-08-18T14:11:59;7.97;;;6.57;;
5539;SDS011;2792;52.452;9.752;2022-08-18T14:14:25;8.10;;;7.30;;
5539;SDS011;2792;52.452;9.752;2022-08-18T14:16:52;8.00;;;7.20;;
5539;SDS011;2792;52.452;9.752;2022-08-18T14:19:18;8.07;;;7.27;;
5539;SDS011;2792;52.452;9.752;2022-08-18T14:22:03;11.83;;;7.87;;
5539;SDS011;2792;52.452;9.752;2022-08-18T14:24:47;8.70;;;6.53;;
5539;SDS011;2792;52.452;9.752;2022-08-18T14:27:34;8.47;;;7.60;;
5539;SDS011;2792;52.452;9.752;2022-08-18T14:30:02;13.47;;;7.70;;
5539;SDS011;2792;52.452;9.752;2022-08-18T14:32:30;7.87;;;7.07;;
5539;SDS011;2792;52.452;9.752;2022-08-18T14:34:57;7.50;;;6.80;;
5539;SDS011;2792;52.452;9.752;2022-08-18T14:37:26;7.93;;;7.13;;
5539;SDS011;2792;52.452;9.752;2022-08-18T14:39:53;7.47;;;6.70;;
5539;SDS011;2792;52.452;9.752;2022-08-18T14:42:20;7.27;;;6.37;;
5539;SDS011;2792;52.452;9.752;2022-08-18T14:44:48;8.17;;;6.83;;
5539;SDS011;2792;52.452;9.752;2022-08-18T14:47:15;7.80;;;6.93;;
5539;SDS011;2792;52.452;9.752;2022-08-18T14:49:41;8.17;;;7.00;;
5539;SDS011;2792;52.452;9.752;2022-08-18T14:52:10;6.97;;;6.27;;
5539;SDS011;2792;52.452;9.752;2022-08-18T14:54:37;7.10;;;6.40;;
5539;SDS011;2792;52.452;9.752;2022-08-18T14:57:04;7.27;;;5.80;;
5539;SDS011;2792;52.452;9.752;2022-08-18T14:59:35;7.87;;;5.93;;
5539;SDS011;2792;52.452;9.752;2022-08-18T15:02:03;6.17;;;5.57;;
5539;SDS011;2792;52.452;9.752;2022-08-18T15:04:30;6.87;;;6.23;;
5539;SDS011;2792;52.452;9.752;2022-08-18T15:06:57;6.63;;;6.03;;
5539;SDS011;2792;52.452;9.752;2022-08-18T15:09:24;8.00;;;6.07;;
5539;SDS011;2792;52.452;9.752;2022-08-18T15:11:51;7.50;;;6.30;;
5539;SDS011;2792;52.452;9.752;2022-08-18T15:14:19;9.50;;;5.97;;
5539;SDS011;2792;52.452;9.752;2022-08-18T15:16:46;10.97;;;6.30;;
5539;SDS011;2792;52.452;9.752;2022-08-18T15:19:14;5.80;;;5.30;;
5539;SDS011;2792;52.452;9.752;2022-08-18T15:21:41;7.17;;;5.67;;
5539;SDS011;2792;52.452;9.752;2022-08-18T15:24:25;6.40;;;5.30;;
5539;SDS011;2792;52.452;9.752;2022-08-18T15:27:09;6.20;;;5.60;;
5539;SDS011;2792;52.452;9.752;2022-08-18T15:29:35;8.40;;;6.47;;
5539;SDS011;2792;52.452;9.752;2022-08-18T15:32:02;7.13;;;6.43;;
5539;SDS011;2792;52.452;9.752;2022-08-18T15:34:31;6.63;;;6.03;;
5539;SDS011;2792;52.452;9.752;2022-08-18T15:36:58;6.67;;;5.90;;
5539;SDS011;2792;52.452;9.752;2022-08-18T15:39:24;7.50;;;5.73;;
5539;SDS011;2792;52.452;9.752;2022-08-18T15:41:51;7.30;;;5.27;;
5539;SDS011;2792;52.452;9.752;2022-08-18T15:44:20;5.63;;;5.07;;
5539;SDS011;2792;52.452;9.752;2022-08-18T15:46:47;5.70;;;5.00;;